BKP103 VTBS-VTSM
Flight info
| Callsign | BKP103 |
|---|---|
| Flight time | N/A |
| Altitude | 32000 |
| Route | KASNI1E KASNI DCT ENRAG DCT PUKOM |
| Aircraft | A319/M-SDE3FGHIRWY/LB1 |
Departure
| Time | N/A |
|---|---|
| Airport | Suvarnabhumi Airport (VTBS) |
Arrival
| Time | 2026-04-20 00:26 |
|---|---|
| Airport | Samui International Airport (VTSM) |
| Time | Latitude | Longitude | Altitude | Speed | Heading |
|---|---|---|---|---|---|
| 2026-04-19 23:58 | 12.21204 | 100.52871 | 28534 ft | 466 kts | 189° |
| 2026-04-19 23:59 | 12.17995 | 100.52319 | 28813 ft | 469 kts | 189° |
| 2026-04-19 23:59 | 12.14771 | 100.51766 | 29088 ft | 471 kts | 189° |
| 2026-04-19 23:59 | 12.11535 | 100.51211 | 29370 ft | 473 kts | 189° |
| 2026-04-19 23:59 | 12.08278 | 100.50654 | 29644 ft | 475 kts | 190° |
| 2026-04-20 00:00 | 12.05010 | 100.50092 | 29908 ft | 477 kts | 190° |
| 2026-04-20 00:00 | 12.01727 | 100.49527 | 30133 ft | 479 kts | 190° |
| 2026-04-20 00:00 | 11.98434 | 100.48959 | 30365 ft | 481 kts | 190° |
| 2026-04-20 00:00 | 11.95126 | 100.48390 | 30592 ft | 483 kts | 190° |
| 2026-04-20 00:01 | 11.91802 | 100.47821 | 30821 ft | 484 kts | 190° |
| 2026-04-20 00:01 | 11.88477 | 100.47252 | 31050 ft | 486 kts | 190° |
| 2026-04-20 00:01 | 11.81783 | 100.46107 | 31482 ft | 489 kts | 189° |
| 2026-04-20 00:02 | 11.78425 | 100.45533 | 31772 ft | 489 kts | 189° |
| 2026-04-20 00:02 | 11.71798 | 100.44400 | 31894 ft | 471 kts | 189° |
| 2026-04-20 00:03 | 11.65413 | 100.43310 | 31896 ft | 462 kts | 189° |
| 2026-04-20 00:03 | 11.59077 | 100.42227 | 31896 ft | 461 kts | 189° |
| 2026-04-20 00:04 | 11.52754 | 100.41147 | 31894 ft | 461 kts | 189° |
| 2026-04-20 00:04 | 11.46474 | 100.40077 | 31896 ft | 461 kts | 189° |
| 2026-04-20 00:05 | 11.40153 | 100.39000 | 31894 ft | 460 kts | 189° |
| 2026-04-20 00:05 | 11.33839 | 100.37921 | 31891 ft | 460 kts | 189° |
| 2026-04-20 00:06 | 11.27504 | 100.36836 | 31143 ft | 466 kts | 189° |
| 2026-04-20 00:06 | 11.24306 | 100.36290 | 30575 ft | 465 kts | 189° |
| 2026-04-20 00:06 | 11.21115 | 100.35745 | 30021 ft | 464 kts | 189° |
| 2026-04-20 00:06 | 11.17936 | 100.35202 | 29413 ft | 462 kts | 189° |
| 2026-04-20 00:07 | 11.14782 | 100.34666 | 28876 ft | 458 kts | 189° |
| 2026-04-20 00:07 | 11.11651 | 100.34135 | 28329 ft | 454 kts | 189° |
| 2026-04-20 00:07 | 11.08549 | 100.33608 | 27799 ft | 451 kts | 189° |
| 2026-04-20 00:07 | 11.05465 | 100.33082 | 27270 ft | 447 kts | 189° |
| 2026-04-20 00:08 | 11.02411 | 100.32561 | 26760 ft | 443 kts | 189° |
| 2026-04-20 00:08 | 10.99381 | 100.32044 | 26259 ft | 440 kts | 189° |
| 2026-04-20 00:08 | 10.96375 | 100.31533 | 25777 ft | 436 kts | 189° |
| 2026-04-20 00:08 | 10.93394 | 100.31028 | 25302 ft | 433 kts | 189° |
| 2026-04-20 00:09 | 10.90435 | 100.30527 | 24842 ft | 429 kts | 189° |
| 2026-04-20 00:09 | 10.87500 | 100.30029 | 24383 ft | 427 kts | 189° |
| 2026-04-20 00:09 | 10.84583 | 100.29534 | 23922 ft | 424 kts | 189° |
| 2026-04-20 00:09 | 10.81676 | 100.29043 | 23452 ft | 422 kts | 189° |
| 2026-04-20 00:10 | 10.78784 | 100.28554 | 22929 ft | 420 kts | 189° |
| 2026-04-20 00:10 | 10.75918 | 100.28064 | 22456 ft | 416 kts | 189° |
| 2026-04-20 00:10 | 10.73079 | 100.27577 | 21975 ft | 412 kts | 189° |
| 2026-04-20 00:10 | 10.70263 | 100.27095 | 21484 ft | 409 kts | 188° |
| 2026-04-20 00:11 | 10.67460 | 100.26618 | 20994 ft | 406 kts | 188° |
| 2026-04-20 00:11 | 10.64684 | 100.26145 | 20487 ft | 402 kts | 188° |
| 2026-04-20 00:11 | 10.61938 | 100.25676 | 19996 ft | 397 kts | 189° |
| 2026-04-20 00:11 | 10.59230 | 100.25215 | 19495 ft | 393 kts | 188° |
| 2026-04-20 00:12 | 10.56551 | 100.24763 | 19000 ft | 388 kts | 188° |
| 2026-04-20 00:12 | 10.53906 | 100.24316 | 18511 ft | 384 kts | 188° |
| 2026-04-20 00:12 | 10.51287 | 100.23873 | 17982 ft | 379 kts | 188° |
| 2026-04-20 00:12 | 10.48698 | 100.23435 | 17484 ft | 374 kts | 188° |
| 2026-04-20 00:13 | 10.46150 | 100.23003 | 17009 ft | 368 kts | 188° |
| 2026-04-20 00:13 | 10.43645 | 100.22577 | 16537 ft | 363 kts | 188° |
| 2026-04-20 00:13 | 10.41170 | 100.22157 | 16074 ft | 358 kts | 188° |
| 2026-04-20 00:13 | 10.38731 | 100.21744 | 15611 ft | 354 kts | 188° |
| 2026-04-20 00:14 | 10.36315 | 100.21335 | 15151 ft | 350 kts | 188° |
| 2026-04-20 00:14 | 10.33929 | 100.20930 | 14704 ft | 346 kts | 189° |
| 2026-04-20 00:14 | 10.31562 | 100.20528 | 14248 ft | 343 kts | 188° |
| 2026-04-20 00:14 | 10.29231 | 100.20130 | 13794 ft | 336 kts | 188° |
| 2026-04-20 00:15 | 10.26923 | 100.19738 | 13025 ft | 338 kts | 188° |
| 2026-04-20 00:15 | 10.24613 | 100.19349 | 12431 ft | 335 kts | 188° |
| 2026-04-20 00:15 | 10.22326 | 100.18964 | 11919 ft | 330 kts | 189° |
| 2026-04-20 00:15 | 10.20122 | 100.18593 | 11525 ft | 319 kts | 189° |
| 2026-04-20 00:16 | 10.17941 | 100.18226 | 10834 ft | 323 kts | 189° |
| 2026-04-20 00:16 | 10.15728 | 100.17852 | 10282 ft | 322 kts | 189° |
| 2026-04-20 00:16 | 10.13529 | 100.17478 | 10058 ft | 321 kts | 189° |
| 2026-04-20 00:16 | 10.11362 | 100.17108 | 9885 ft | 308 kts | 189° |
| 2026-04-20 00:17 | 10.09284 | 100.16755 | 9767 ft | 299 kts | 189° |
| 2026-04-20 00:17 | 10.07239 | 100.16409 | 9642 ft | 297 kts | 189° |
| 2026-04-20 00:17 | 10.05210 | 100.16067 | 9515 ft | 296 kts | 189° |
| 2026-04-20 00:17 | 10.03180 | 100.15725 | 9396 ft | 296 kts | 189° |
| 2026-04-20 00:18 | 10.01143 | 100.15377 | 9011 ft | 297 kts | 189° |
| 2026-04-20 00:18 | 9.99104 | 100.15027 | 8640 ft | 295 kts | 189° |
| 2026-04-20 00:18 | 9.97079 | 100.14680 | 8173 ft | 294 kts | 189° |
| 2026-04-20 00:18 | 9.95081 | 100.14337 | 7646 ft | 290 kts | 189° |
| 2026-04-20 00:19 | 9.93105 | 100.13995 | 7122 ft | 286 kts | 189° |
| 2026-04-20 00:19 | 9.91159 | 100.13658 | 6663 ft | 281 kts | 189° |
| 2026-04-20 00:19 | 9.89246 | 100.13326 | 6207 ft | 277 kts | 189° |
| 2026-04-20 00:19 | 9.87353 | 100.12999 | 5733 ft | 274 kts | 189° |
| 2026-04-20 00:20 | 9.85468 | 100.12676 | 5295 ft | 276 kts | 189° |
| 2026-04-20 00:20 | 9.83579 | 100.12354 | 4940 ft | 276 kts | 189° |
| 2026-04-20 00:20 | 9.81664 | 100.12025 | 4516 ft | 280 kts | 189° |
| 2026-04-20 00:20 | 9.79726 | 100.11692 | 3941 ft | 285 kts | 189° |
| 2026-04-20 00:21 | 9.77770 | 100.11355 | 3450 ft | 283 kts | 189° |
| 2026-04-20 00:21 | 9.75889 | 100.11030 | 3317 ft | 267 kts | 189° |
| 2026-04-20 00:21 | 9.74100 | 100.10717 | 3157 ft | 254 kts | 191° |
| 2026-04-20 00:21 | 9.72474 | 100.10146 | 2968 ft | 244 kts | 204° |
| 2026-04-20 00:22 | 9.70940 | 100.09437 | 2641 ft | 240 kts | 204° |
| 2026-04-20 00:22 | 9.69436 | 100.08745 | 2354 ft | 234 kts | 205° |
| 2026-04-20 00:22 | 9.67974 | 100.08076 | 2067 ft | 227 kts | 204° |
| 2026-04-20 00:22 | 9.66578 | 100.07436 | 1772 ft | 212 kts | 203° |
| 2026-04-20 00:23 | 9.65287 | 100.06845 | 1494 ft | 196 kts | 203° |
| 2026-04-20 00:23 | 9.64133 | 100.06315 | 1439 ft | 170 kts | 203° |
| 2026-04-20 00:23 | 9.63147 | 100.05864 | 1425 ft | 144 kts | 203° |
| 2026-04-20 00:23 | 9.62236 | 100.05574 | 1426 ft | 133 kts | 187° |
| 2026-04-20 00:24 | 9.61314 | 100.05609 | 1267 ft | 132 kts | 175° |
| 2026-04-20 00:24 | 9.60415 | 100.05700 | 1083 ft | 128 kts | 176° |
| 2026-04-20 00:24 | 9.59535 | 100.05792 | 887 ft | 128 kts | 175° |
| 2026-04-20 00:24 | 9.58658 | 100.05885 | 720 ft | 128 kts | 176° |
| 2026-04-20 00:25 | 9.57757 | 100.05977 | 493 ft | 131 kts | 175° |
| 2026-04-20 00:25 | 9.56848 | 100.06065 | 358 ft | 131 kts | 176° |
| 2026-04-20 00:25 | 9.55940 | 100.06144 | 167 ft | 131 kts | 179° |
| 2026-04-20 00:25 | 9.55076 | 100.06217 | 55 ft | 111 kts | 173° |
| 2026-04-20 00:26 | 9.54607 | 100.06263 | 51 ft | 42 kts | 174° |
| 2026-04-20 00:26 | 9.54289 | 100.06293 | 53 ft | 50 kts | 175° |
| 2026-04-20 00:26 | 9.54004 | 100.06321 | 53 ft | 24 kts | 175° |
| 2026-04-20 00:26 | 9.53850 | 100.06315 | 53 ft | 15 kts | 166° |
| 2026-04-20 00:27 | 9.53851 | 100.06344 | 53 ft | 4 kts | 351° |
| 2026-04-20 00:27 | 9.53929 | 100.06330 | 49 ft | 19 kts | 355° |
| 2026-04-20 00:27 | 9.54085 | 100.06315 | 50 ft | 26 kts | 353° |
| 2026-04-20 00:27 | 9.54282 | 100.06295 | 50 ft | 31 kts | 354° |
| 2026-04-20 00:28 | 9.54527 | 100.06272 | 53 ft | 39 kts | 354° |
| 2026-04-20 00:28 | 9.54802 | 100.06245 | 50 ft | 37 kts | 354° |
| 2026-04-20 00:28 | 9.54996 | 100.06228 | 50 ft | 17 kts | 1° |
| 2026-04-20 00:28 | 9.55112 | 100.06228 | 51 ft | 14 kts | 36° |
| 2026-04-20 00:29 | 9.55136 | 100.06295 | 53 ft | 9 kts | 26° |
| 2026-04-20 00:29 | 9.55210 | 100.06291 | 53 ft | 12 kts | 353° |
| 2026-04-20 00:29 | 9.55242 | 100.06318 | 53 ft | 3 kts | 83° |
| 2026-04-20 00:29 | 9.55243 | 100.06327 | 53 ft | 0 kts | 84° |